Time;durP1;ratioP1;P1;durP2;ratioP2;P2;SDS_P1;SDS_P2;PMS_P1;PMS_P2;Temp;Humidity;BMP_temperature;BMP_pressure;BME280_temperature;BME280_humidity;BME280_pressure;Samples;Min_cycle;Max_cycle;Signal;HPM_P1;HPM_P2
2022/12/15 09:23:50;;;;;;;;;;;;;;;;;;6098961;23;19952;-79
2022/12/15 09:26:16;;;;;;;;;;;;;;;;;;6100470;23;19970;-86
2022/12/15 09:28:42;;;;;;;;;;;;;;;;;;6075857;23;19917;-82
2022/12/15 12:32:39;;;;;;;;;;;;;;;;;;6066944;23;20019;-86
2022/12/15 12:35:07;;;;;;;;;;;;;;;;;;6073194;23;20269;-87
2022/12/15 12:37:40;;;;;;;;;;;;;;;;;;6098677;23;19913;-89
2022/12/15 12:40:24;;;;;;;;;;;;;;;;;;6073426;23;20245;-87
2022/12/15 12:42:54;;;;;;;;;;;;;;;;;;6098909;23;19914;-87
2022/12/15 12:45:22;;;;;;;;;;;;;;;;;;6104157;23;19913;-89
2022/12/15 12:47:49;;;;;;;;;;;;;;;;;;6076342;23;19917;-91
2022/12/15 18:01:30;;;;;;;;;;;;;;;;;;6095616;23;19921;-81
2022/12/15 18:03:55;;;;;;;;;;;;;;;;;;6097765;23;19917;-79
2022/12/15 18:06:20;;;;;;;;;;;;;;;;;;6098505;23;20337;-80
2022/12/15 18:08:46;;;;;;;;;;;;;;;;;;6072549;23;20226;-81
2022/12/15 18:11:13;;;;;;;;;;;;;;;;;;6097806;23;19913;-81
2022/12/15 18:13:39;;;;;;;;;;;;;;;;;;6072394;23;19928;-86
2022/12/15 18:16:04;;;;;;;;;;;;;;;;;;6098018;23;19948;-79
2022/12/15 18:18:29;;;;;;;;;;;;;;;;;;6097858;23;19914;-80
2022/12/15 18:20:59;;;;;;;;;;;;;;;;;;6097864;23;20389;-80
2022/12/15 18:23:25;;;;;;;;;;;;;;;;;;6098311;23;19921;-80
2022/12/15 18:25:50;;;;;;;;;;;;;;;;;;6098022;23;19913;-79
2022/12/15 18:28:18;;;;;;;;;;;;;;;;;;6097822;23;20325;-79
2022/12/15 18:30:43;;;;;;;;;;;;;;;;;;6098295;23;19945;-78
2022/12/15 18:33:09;;;;;;;;;;;;;;;;;;6072620;23;19914;-79
2022/12/15 18:35:39;;;;;;;;;;;;;;;;;;6098156;23;19913;-78
2022/12/15 18:38:15;;;;;;;;;;;;;;;;;;6097754;23;20285;-79
2022/12/15 18:40:40;;;;;;;;;;;;;;;;;;6097953;23;19960;-78
2022/12/15 18:43:13;;;;;;;;;;;;;;;;;;6098068;23;20281;-79
2022/12/15 18:45:38;;;;;;;;;;;;;;;;;;6097826;23;20315;-79
2022/12/15 18:48:14;;;;;;;;;;;;;;;;;;6072213;23;19921;-79
2022/12/15 18:50:40;;;;;;;;;;;;;;;;;;6098172;23;19913;-78
2022/12/15 18:53:09;;;;;;;;;;;;;;;;;;6097776;23;19936;-78
2022/12/15 18:55:35;;;;;;;;;;;;;;;;;;6097567;23;19920;-80
2022/12/15 18:58:00;;;;;;;;;;;;;;;;;;6097726;23;19913;-79
2022/12/15 19:00:27;;;;;;;;;;;;;;;;;;6097779;23;19916;-80
2022/12/15 19:02:53;;;;;;;;;;;;;;;;;;6097726;23;20280;-80
2022/12/15 19:05:31;;;;;;;;;;;;;;;;;;6099569;23;19914;-79
2022/12/15 19:07:56;;;;;;;;;;;;;;;;;;6074268;23;19918;-81
2022/12/15 19:10:22;;;;;;;;;;;;;;;;;;6100062;23;19913;-80
2022/12/15 19:12:47;;;;;;;;;;;;;;;;;;6076787;23;19941;-80
2022/12/15 19:15:17;;;;;;;;;;;;;;;;;;6100395;23;19920;-80
2022/12/15 19:23:13;;;;;;;;;;;;;;;;;;6100454;23;19920;-81
